sensor_id;sensor_type;location;lat;lon;timestamp;pressure;altitude;pressure_sealevel;temperature;humidity
10946;BME280;5525;42.648;23.368;2022-11-04T00:01:30;94795.91;;;11.60;nan
10946;BME280;5525;42.648;23.368;2022-11-04T00:03:57;94805.28;;;11.71;nan
10946;BME280;5525;42.648;23.368;2022-11-04T00:06:26;94797.25;;;11.83;nan
10946;BME280;5525;42.648;23.368;2022-11-04T00:08:54;94804.94;;;11.72;nan
10946;BME280;5525;42.648;23.368;2022-11-04T00:11:21;94801.75;;;11.70;nan
10946;BME280;5525;42.648;23.368;2022-11-04T00:14:07;94785.09;;;11.60;nan
10946;BME280;5525;42.648;23.368;2022-11-04T00:16:34;94791.59;;;11.67;nan
10946;BME280;5525;42.648;23.368;2022-11-04T00:19:19;94802.38;;;11.38;nan
10946;BME280;5525;42.648;23.368;2022-11-04T00:21:47;94803.47;;;11.08;nan
10946;BME280;5525;42.648;23.368;2022-11-04T00:24:31;94804.75;;;11.02;nan
10946;BME280;5525;42.648;23.368;2022-11-04T00:27:18;94797.16;;;10.87;nan
10946;BME280;5525;42.648;23.368;2022-11-04T00:30:04;94787.06;;;10.59;nan
10946;BME280;5525;42.648;23.368;2022-11-04T00:32:32;94804.81;;;10.85;nan
10946;BME280;5525;42.648;23.368;2022-11-04T00:35:16;94802.06;;;10.94;nan
10946;BME280;5525;42.648;23.368;2022-11-04T00:37:45;94787.94;;;10.88;nan
10946;BME280;5525;42.648;23.368;2022-11-04T00:40:13;94783.69;;;10.70;nan
10946;BME280;5525;42.648;23.368;2022-11-04T00:42:43;94789.88;;;10.79;nan
10946;BME280;5525;42.648;23.368;2022-11-04T00:45:11;94793.88;;;10.65;nan
10946;BME280;5525;42.648;23.368;2022-11-04T00:47:38;94795.81;;;10.39;nan
10946;BME280;5525;42.648;23.368;2022-11-04T00:50:06;94793.28;;;10.42;nan
10946;BME280;5525;42.648;23.368;2022-11-04T00:52:33;94792.16;;;10.52;nan
10946;BME280;5525;42.648;23.368;2022-11-04T00:55:01;94786.59;;;10.48;nan
10946;BME280;5525;42.648;23.368;2022-11-04T00:57:28;94788.81;;;10.55;nan
10946;BME280;5525;42.648;23.368;2022-11-04T00:59:54;94777.84;;;10.60;nan
10946;BME280;5525;42.648;23.368;2022-11-04T01:02:22;94764.78;;;10.70;nan
10946;BME280;5525;42.648;23.368;2022-11-04T01:04:49;94771.78;;;10.71;nan
10946;BME280;5525;42.648;23.368;2022-11-04T01:07:15;94766.88;;;10.65;nan
10946;BME280;5525;42.648;23.368;2022-11-04T01:09:42;94780.41;;;10.56;nan
10946;BME280;5525;42.648;23.368;2022-11-04T01:12:10;94746.63;;;10.16;nan
10946;BME280;5525;42.648;23.368;2022-11-04T01:14:37;94759.16;;;10.20;nan
10946;BME280;5525;42.648;23.368;2022-11-04T01:17:04;94767.06;;;10.51;nan
10946;BME280;5525;42.648;23.368;2022-11-04T01:19:31;94751.44;;;10.74;nan
10946;BME280;5525;42.648;23.368;2022-11-04T01:21:58;94751.28;;;10.79;nan
10946;BME280;5525;42.648;23.368;2022-11-04T01:24:25;94746.34;;;10.81;nan
10946;BME280;5525;42.648;23.368;2022-11-04T01:26:51;94749.38;;;10.79;nan
10946;BME280;5525;42.648;23.368;2022-11-04T01:29:20;94739.66;;;10.87;nan
10946;BME280;5525;42.648;23.368;2022-11-04T01:31:46;94739.28;;;10.97;nan
10946;BME280;5525;42.648;23.368;2022-11-04T01:34:13;94736.91;;;10.95;nan
10946;BME280;5525;42.648;23.368;2022-11-04T01:36:40;94744.94;;;11.12;nan
10946;BME280;5525;42.648;23.368;2022-11-04T01:39:08;94747.47;;;11.17;nan
10946;BME280;5525;42.648;23.368;2022-11-04T01:41:35;94729.38;;;11.09;nan
10946;BME280;5525;42.648;23.368;2022-11-04T01:44:03;94734.38;;;11.28;nan
10946;BME280;5525;42.648;23.368;2022-11-04T01:46:35;94737.91;;;11.20;nan
10946;BME280;5525;42.648;23.368;2022-11-04T01:49:08;94725.63;;;11.31;nan
10946;BME280;5525;42.648;23.368;2022-11-04T01:51:38;94737.13;;;11.48;nan
10946;BME280;5525;42.648;23.368;2022-11-04T01:54:07;94694.81;;;11.23;nan
10946;BME280;5525;42.648;23.368;2022-11-04T01:56:35;94730.59;;;11.49;nan
10946;BME280;5525;42.648;23.368;2022-11-04T01:59:06;94695.28;;;11.25;nan
10946;BME280;5525;42.648;23.368;2022-11-04T02:01:36;94727.59;;;11.42;nan
10946;BME280;5525;42.648;23.368;2022-11-04T02:04:03;94721.28;;;11.38;nan
10946;BME280;5525;42.648;23.368;2022-11-04T02:06:45;94716.59;;;11.27;nan
10946;BME280;5525;42.648;23.368;2022-11-04T02:09:13;94727.44;;;11.18;nan
10946;BME280;5525;42.648;23.368;2022-11-04T02:11:39;94729.44;;;10.92;nan
10946;BME280;5525;42.648;23.368;2022-11-04T02:14:23;94723.34;;;10.66;nan
10946;BME280;5525;42.648;23.368;2022-11-04T02:16:55;94706.28;;;10.37;nan
10946;BME280;5525;42.648;23.368;2022-11-04T02:19:39;94722.78;;;10.44;nan
10946;BME280;5525;42.648;23.368;2022-11-04T02:25:28;94730.56;;;10.37;nan
10946;BME280;5525;42.648;23.368;2022-11-04T02:28:25;94729.94;;;10.22;nan
10946;BME280;5525;42.648;23.368;2022-11-04T02:31:04;94719.94;;;9.89;nan
10946;BME280;5525;42.648;23.368;2022-11-04T02:33:40;94720.91;;;9.93;nan
10946;BME280;5525;42.648;23.368;2022-11-04T02:36:11;94705.81;;;9.92;nan
10946;BME280;5525;42.648;23.368;2022-11-04T02:38:47;94723.44;;;9.98;nan
10946;BME280;5525;42.648;23.368;2022-11-04T02:41:28;94728.66;;;9.86;nan
10946;BME280;5525;42.648;23.368;2022-11-04T02:44:04;94732.97;;;9.87;nan
10946;BME280;5525;42.648;23.368;2022-11-04T02:46:41;94707.75;;;9.91;nan
10946;BME280;5525;42.648;23.368;2022-11-04T02:49:16;94721.69;;;9.68;nan
10946;BME280;5525;42.648;23.368;2022-11-04T02:51:47;94715.50;;;9.67;nan
10946;BME280;5525;42.648;23.368;2022-11-04T02:54:20;94710.91;;;9.51;nan
10946;BME280;5525;42.648;23.368;2022-11-04T02:56:50;94718.19;;;9.50;nan
10946;BME280;5525;42.648;23.368;2022-11-04T02:59:21;94723.44;;;9.47;nan
10946;BME280;5525;42.648;23.368;2022-11-04T03:01:52;94712.94;;;9.28;nan
10946;BME280;5525;42.648;23.368;2022-11-04T03:04:24;94696.84;;;8.98;nan
10946;BME280;5525;42.648;23.368;2022-11-04T03:06:54;94719.84;;;9.04;nan
10946;BME280;5525;42.648;23.368;2022-11-04T03:09:24;94710.97;;;9.03;nan
10946;BME280;5525;42.648;23.368;2022-11-04T03:11:56;94705.56;;;9.03;nan
10946;BME280;5525;42.648;23.368;2022-11-04T03:14:28;94718.59;;;9.10;nan
10946;BME280;5525;42.648;23.368;2022-11-04T03:17:02;94701.13;;;9.07;nan
10946;BME280;5525;42.648;23.368;2022-11-04T03:19:37;94716.06;;;9.13;nan
10946;BME280;5525;42.648;23.368;2022-11-04T03:22:09;94726.97;;;9.08;nan
10946;BME280;5525;42.648;23.368;2022-11-04T03:24:37;94723.94;;;9.01;nan
10946;BME280;5525;42.648;23.368;2022-11-04T03:27:08;94712.50;;;8.87;nan
10946;BME280;5525;42.648;23.368;2022-11-04T03:29:44;94714.53;;;8.82;nan
10946;BME280;5525;42.648;23.368;2022-11-04T03:32:21;94715.03;;;8.92;nan
10946;BME280;5525;42.648;23.368;2022-11-04T03:34:50;94718.09;;;8.99;nan
10946;BME280;5525;42.648;23.368;2022-11-04T03:37:17;94714.03;;;8.80;nan
10946;BME280;5525;42.648;23.368;2022-11-04T03:39:44;94709.69;;;8.31;nan
10946;BME280;5525;42.648;23.368;2022-11-04T03:42:13;94714.59;;;8.29;nan
10946;BME280;5525;42.648;23.368;2022-11-04T03:44:48;94722.69;;;8.15;nan
10946;BME280;5525;42.648;23.368;2022-11-04T03:47:18;94716.81;;;8.27;nan
10946;BME280;5525;42.648;23.368;2022-11-04T03:49:46;94707.44;;;8.24;nan
10946;BME280;5525;42.648;23.368;2022-11-04T03:52:15;94711.97;;;8.37;nan
10946;BME280;5525;42.648;23.368;2022-11-04T03:54:43;94684.63;;;8.22;nan
10946;BME280;5525;42.648;23.368;2022-11-04T03:57:32;94714.69;;;8.46;nan
10946;BME280;5525;42.648;23.368;2022-11-04T04:00:07;94717.38;;;8.46;nan
10946;BME280;5525;42.648;23.368;2022-11-04T04:02:48;94713.81;;;8.59;nan
10946;BME280;5525;42.648;23.368;2022-11-04T04:05:21;94706.38;;;8.65;nan
10946;BME280;5525;42.648;23.368;2022-11-04T04:07:55;94704.69;;;8.77;nan
10946;BME280;5525;42.648;23.368;2022-11-04T04:10:27;94696.75;;;8.72;nan
10946;BME280;5525;42.648;23.368;2022-11-04T04:13:09;94709.59;;;8.75;nan
10946;BME280;5525;42.648;23.368;2022-11-04T04:15:43;94710.75;;;8.52;nan
10946;BME280;5525;42.648;23.368;2022-11-04T04:18:17;94711.03;;;8.42;nan
10946;BME280;5525;42.648;23.368;2022-11-04T04:20:50;94691.59;;;8.23;nan
10946;BME280;5525;42.648;23.368;2022-11-04T04:23:23;94711.31;;;8.18;nan
10946;BME280;5525;42.648;23.368;2022-11-04T04:26:11;94709.44;;;8.19;nan
10946;BME280;5525;42.648;23.368;2022-11-04T04:28:58;94705.00;;;8.14;nan
10946;BME280;5525;42.648;23.368;2022-11-04T04:31:29;94679.75;;;8.02;nan
10946;BME280;5525;42.648;23.368;2022-11-04T04:34:16;94706.53;;;8.07;nan
10946;BME280;5525;42.648;23.368;2022-11-04T04:36:45;94703.34;;;8.05;nan
10946;BME280;5525;42.648;23.368;2022-11-04T04:39:17;94700.84;;;8.08;nan
10946;BME280;5525;42.648;23.368;2022-11-04T04:42:03;94691.25;;;7.94;nan
10946;BME280;5525;42.648;23.368;2022-11-04T04:45:03;94679.53;;;7.90;nan
10946;BME280;5525;42.648;23.368;2022-11-04T04:47:37;94705.53;;;8.03;nan
10946;BME280;5525;42.648;23.368;2022-11-04T04:50:08;94670.72;;;7.76;nan
10946;BME280;5525;42.648;23.368;2022-11-04T04:52:39;94703.03;;;8.06;nan
10946;BME280;5525;42.648;23.368;2022-11-04T04:55:07;94688.44;;;7.99;nan
10946;BME280;5525;42.648;23.368;2022-11-04T04:57:34;94691.53;;;8.14;nan
10946;BME280;5525;42.648;23.368;2022-11-04T05:00:02;94703.16;;;8.01;nan
10946;BME280;5525;42.648;23.368;2022-11-04T05:02:29;94699.06;;;7.82;nan
10946;BME280;5525;42.648;23.368;2022-11-04T05:04:56;94692.66;;;7.69;nan
10946;BME280;5525;42.648;23.368;2022-11-04T05:07:25;94704.81;;;7.67;nan
10946;BME280;5525;42.648;23.368;2022-11-04T05:09:52;94710.13;;;7.80;nan
10946;BME280;5525;42.648;23.368;2022-11-04T05:12:19;94707.63;;;7.84;nan
10946;BME280;5525;42.648;23.368;2022-11-04T05:14:45;94711.03;;;7.76;nan
10946;BME280;5525;42.648;23.368;2022-11-04T05:17:13;94714.94;;;7.70;nan
10946;BME280;5525;42.648;23.368;2022-11-04T05:19:41;94704.69;;;7.72;nan
10946;BME280;5525;42.648;23.368;2022-11-04T05:22:08;94711.94;;;7.93;nan
10946;BME280;5525;42.648;23.368;2022-11-04T05:24:36;94680.59;;;7.89;nan
10946;BME280;5525;42.648;23.368;2022-11-04T05:27:03;94716.91;;;8.22;nan
10946;BME280;5525;42.648;23.368;2022-11-04T05:29:29;94722.44;;;8.47;nan
10946;BME280;5525;42.648;23.368;2022-11-04T05:31:56;94725.41;;;8.37;nan
10946;BME280;5525;42.648;23.368;2022-11-04T05:34:23;94698.97;;;8.39;nan
10946;BME280;5525;42.648;23.368;2022-11-04T05:36:51;94727.56;;;8.57;nan
10946;BME280;5525;42.648;23.368;2022-11-04T05:39:17;94717.69;;;8.44;nan
10946;BME280;5525;42.648;23.368;2022-11-04T05:41:46;94730.69;;;8.51;nan
10946;BME280;5525;42.648;23.368;2022-11-04T05:44:12;94702.16;;;8.41;nan
10946;BME280;5525;42.648;23.368;2022-11-04T05:46:40;94730.59;;;8.65;nan
10946;BME280;5525;42.648;23.368;2022-11-04T05:49:08;94734.44;;;8.72;nan
10946;BME280;5525;42.648;23.368;2022-11-04T05:51:35;94732.84;;;8.71;nan
10946;BME280;5525;42.648;23.368;2022-11-04T05:54:02;94730.69;;;8.82;nan
10946;BME280;5525;42.648;23.368;2022-11-04T05:56:29;94745.56;;;8.79;nan
10946;BME280;5525;42.648;23.368;2022-11-04T05:58:57;94706.88;;;8.75;nan
10946;BME280;5525;42.648;23.368;2022-11-04T06:01:27;94751.03;;;9.05;nan
10946;BME280;5525;42.648;23.368;2022-11-04T06:03:55;94732.63;;;8.98;nan
10946;BME280;5525;42.648;23.368;2022-11-04T06:06:23;94757.63;;;9.29;nan
10946;BME280;5525;42.648;23.368;2022-11-04T06:08:50;94741.63;;;9.33;nan
10946;BME280;5525;42.648;23.368;2022-11-04T06:11:18;94756.41;;;9.52;nan
10946;BME280;5525;42.648;23.368;2022-11-04T06:13:46;94746.41;;;9.53;nan
10946;BME280;5525;42.648;23.368;2022-11-04T06:16:15;94722.31;;;9.48;nan
10946;BME280;5525;42.648;23.368;2022-11-04T06:18:42;94754.84;;;9.77;nan
10946;BME280;5525;42.648;23.368;2022-11-04T06:21:23;94748.66;;;9.68;nan
10946;BME280;5525;42.648;23.368;2022-11-04T06:23:50;94720.09;;;9.75;nan
10946;BME280;5525;42.648;23.368;2022-11-04T06:26:18;94751.22;;;9.98;nan
10946;BME280;5525;42.648;23.368;2022-11-04T06:28:46;94750.91;;;9.91;nan
10946;BME280;5525;42.648;23.368;2022-11-04T06:31:15;94749.50;;;10.11;nan
10946;BME280;5525;42.648;23.368;2022-11-04T06:33:42;94758.06;;;10.13;nan
10946;BME280;5525;42.648;23.368;2022-11-04T06:36:11;94751.72;;;10.09;nan
10946;BME280;5525;42.648;23.368;2022-11-04T06:38:39;94751.38;;;10.10;nan
10946;BME280;5525;42.648;23.368;2022-11-04T06:41:07;94745.84;;;10.07;nan
10946;BME280;5525;42.648;23.368;2022-11-04T06:43:34;94747.91;;;10.18;nan
10946;BME280;5525;42.648;23.368;2022-11-04T06:46:02;94718.38;;;10.22;nan
10946;BME280;5525;42.648;23.368;2022-11-04T06:48:30;94759.31;;;10.33;nan
10946;BME280;5525;42.648;23.368;2022-11-04T06:50:58;94756.91;;;10.40;nan
10946;BME280;5525;42.648;23.368;2022-11-04T06:53:26;94726.44;;;10.31;nan
10946;BME280;5525;42.648;23.368;2022-11-04T06:56:00;94739.06;;;10.73;nan
10946;BME280;5525;42.648;23.368;2022-11-04T06:58:27;94705.41;;;10.62;nan
10946;BME280;5525;42.648;23.368;2022-11-04T07:00:54;94742.19;;;10.83;nan
10946;BME280;5525;42.648;23.368;2022-11-04T07:03:21;94694.38;;;10.84;nan
10946;BME280;5525;42.648;23.368;2022-11-04T07:05:49;94742.75;;;11.35;nan
10946;BME280;5525;42.648;23.368;2022-11-04T07:08:16;94730.75;;;11.24;nan
10946;BME280;5525;42.648;23.368;2022-11-04T07:10:43;94723.97;;;11.38;nan
10946;BME280;5525;42.648;23.368;2022-11-04T07:13:10;94742.25;;;11.70;nan
10946;BME280;5525;42.648;23.368;2022-11-04T07:15:37;94733.25;;;11.58;nan
10946;BME280;5525;42.648;23.368;2022-11-04T07:18:05;94739.91;;;11.89;nan
10946;BME280;5525;42.648;23.368;2022-11-04T07:20:32;94724.13;;;12.12;nan
10946;BME280;5525;42.648;23.368;2022-11-04T07:23:01;94729.63;;;12.36;nan
10946;BME280;5525;42.648;23.368;2022-11-04T07:25:27;94739.53;;;12.53;nan
10946;BME280;5525;42.648;23.368;2022-11-04T07:27:55;94711.44;;;13.02;nan
10946;BME280;5525;42.648;23.368;2022-11-04T07:30:22;94719.56;;;13.02;nan
10946;BME280;5525;42.648;23.368;2022-11-04T07:32:49;94705.78;;;13.19;nan
10946;BME280;5525;42.648;23.368;2022-11-04T07:35:16;94709.19;;;13.28;nan
10946;BME280;5525;42.648;23.368;2022-11-04T07:37:43;94692.31;;;13.22;nan
10946;BME280;5525;42.648;23.368;2022-11-04T07:40:11;94690.31;;;13.31;nan
10946;BME280;5525;42.648;23.368;2022-11-04T07:42:38;94698.75;;;13.30;nan
10946;BME280;5525;42.648;23.368;2022-11-04T07:45:06;94669.41;;;13.20;nan
10946;BME280;5525;42.648;23.368;2022-11-04T07:47:33;94697.19;;;13.41;nan
10946;BME280;5525;42.648;23.368;2022-11-04T07:50:00;94705.56;;;13.36;nan
10946;BME280;5525;42.648;23.368;2022-11-04T07:52:27;94702.84;;;13.36;nan
10946;BME280;5525;42.648;23.368;2022-11-04T07:54:53;94696.63;;;13.35;nan
10946;BME280;5525;42.648;23.368;2022-11-04T07:57:22;94688.47;;;13.59;nan
10946;BME280;5525;42.648;23.368;2022-11-04T07:59:49;94701.78;;;13.65;nan
10946;BME280;5525;42.648;23.368;2022-11-04T08:02:16;94690.94;;;13.65;nan
10946;BME280;5525;42.648;23.368;2022-11-04T08:04:43;94692.78;;;13.36;nan
10946;BME280;5525;42.648;23.368;2022-11-04T08:07:10;94693.53;;;13.61;nan
10946;BME280;5525;42.648;23.368;2022-11-04T08:09:37;94678.06;;;13.62;nan
10946;BME280;5525;42.648;23.368;2022-11-04T08:12:04;94684.13;;;13.83;nan
10946;BME280;5525;42.648;23.368;2022-11-04T08:14:33;94680.66;;;13.98;nan
10946;BME280;5525;42.648;23.368;2022-11-04T08:17:00;94635.22;;;13.95;nan
10946;BME280;5525;42.648;23.368;2022-11-04T08:19:27;94669.78;;;14.10;nan
10946;BME280;5525;42.648;23.368;2022-11-04T08:21:55;94658.84;;;14.34;nan
10946;BME280;5525;42.648;23.368;2022-11-04T08:24:22;94676.56;;;14.43;nan
10946;BME280;5525;42.648;23.368;2022-11-04T08:26:49;94642.19;;;14.35;nan
10946;BME280;5525;42.648;23.368;2022-11-04T08:29:16;94648.63;;;14.58;nan
10946;BME280;5525;42.648;23.368;2022-11-04T08:31:44;94653.19;;;14.70;nan
10946;BME280;5525;42.648;23.368;2022-11-04T08:34:11;94651.09;;;14.63;nan
10946;BME280;5525;42.648;23.368;2022-11-04T08:36:39;94646.56;;;14.98;nan
10946;BME280;5525;42.648;23.368;2022-11-04T08:39:08;94617.34;;;14.64;nan
10946;BME280;5525;42.648;23.368;2022-11-04T08:41:36;94656.88;;;14.62;nan
10946;BME280;5525;42.648;23.368;2022-11-04T08:44:05;94645.25;;;14.92;nan
10946;BME280;5525;42.648;23.368;2022-11-04T08:46:35;94648.41;;;14.94;nan
10946;BME280;5525;42.648;23.368;2022-11-04T08:49:04;94652.34;;;15.12;nan
10946;BME280;5525;42.648;23.368;2022-11-04T08:51:33;94645.94;;;15.20;nan
10946;BME280;5525;42.648;23.368;2022-11-04T08:54:03;94639.34;;;15.21;nan
10946;BME280;5525;42.648;23.368;2022-11-04T08:56:32;94637.66;;;15.33;nan
10946;BME280;5525;42.648;23.368;2022-11-04T08:59:00;94604.75;;;15.38;nan
10946;BME280;5525;42.648;23.368;2022-11-04T09:01:29;94629.28;;;15.57;nan
10946;BME280;5525;42.648;23.368;2022-11-04T09:03:56;94634.47;;;15.81;nan
10946;BME280;5525;42.648;23.368;2022-11-04T09:06:26;94634.63;;;16.07;nan
10946;BME280;5525;42.648;23.368;2022-11-04T09:08:54;94624.25;;;16.12;nan
10946;BME280;5525;42.648;23.368;2022-11-04T09:11:22;94635.50;;;16.11;nan
10946;BME280;5525;42.648;23.368;2022-11-04T09:13:49;94592.50;;;15.82;nan
10946;BME280;5525;42.648;23.368;2022-11-04T09:16:17;94599.59;;;15.86;nan
10946;BME280;5525;42.648;23.368;2022-11-04T09:18:44;94606.91;;;16.20;nan
10946;BME280;5525;42.648;23.368;2022-11-04T09:21:11;94602.66;;;16.23;nan
10946;BME280;5525;42.648;23.368;2022-11-04T09:23:39;94594.19;;;16.28;nan
10946;BME280;5525;42.648;23.368;2022-11-04T09:26:08;94605.28;;;16.38;nan
10946;BME280;5525;42.648;23.368;2022-11-04T09:28:36;94598.53;;;16.51;nan
10946;BME280;5525;42.648;23.368;2022-11-04T09:31:04;94596.59;;;16.74;nan
10946;BME280;5525;42.648;23.368;2022-11-04T09:33:31;94600.53;;;17.00;nan
10946;BME280;5525;42.648;23.368;2022-11-04T09:35:58;94596.03;;;17.11;nan
10946;BME280;5525;42.648;23.368;2022-11-04T09:38:26;94591.03;;;17.39;nan
10946;BME280;5525;42.648;23.368;2022-11-04T09:40:55;94578.06;;;17.58;nan
10946;BME280;5525;42.648;23.368;2022-11-04T09:43:35;94575.03;;;17.67;nan
10946;BME280;5525;42.648;23.368;2022-11-04T09:46:09;94572.69;;;17.95;nan
10946;BME280;5525;42.648;23.368;2022-11-04T09:48:41;94563.38;;;17.99;nan
10946;BME280;5525;42.648;23.368;2022-11-04T09:51:11;94570.00;;;18.35;nan
10946;BME280;5525;42.648;23.368;2022-11-04T09:53:42;94532.00;;;18.23;nan
10946;BME280;5525;42.648;23.368;2022-11-04T09:56:16;94520.56;;;18.10;nan
10946;BME280;5525;42.648;23.368;2022-11-04T09:58:45;94509.44;;;18.33;nan
10946;BME280;5525;42.648;23.368;2022-11-04T10:01:20;94536.13;;;18.83;nan
10946;BME280;5525;42.648;23.368;2022-11-04T10:04:07;94518.25;;;18.12;nan
10946;BME280;5525;42.648;23.368;2022-11-04T10:06:47;94516.84;;;18.69;nan
10946;BME280;5525;42.648;23.368;2022-11-04T10:09:35;94528.44;;;19.03;nan
10946;BME280;5525;42.648;23.368;2022-11-04T10:12:13;94518.38;;;19.14;nan
10946;BME280;5525;42.648;23.368;2022-11-04T10:14:57;94519.69;;;19.34;nan
10946;BME280;5525;42.648;23.368;2022-11-04T10:17:45;94499.34;;;19.35;nan
10946;BME280;5525;42.648;23.368;2022-11-04T10:20:28;94511.66;;;19.65;nan
10946;BME280;5525;42.648;23.368;2022-11-04T10:23:01;94503.34;;;19.48;nan
10946;BME280;5525;42.648;23.368;2022-11-04T10:25:38;94497.13;;;19.58;nan
10946;BME280;5525;42.648;23.368;2022-11-04T10:28:11;94469.69;;;19.40;nan
10946;BME280;5525;42.648;23.368;2022-11-04T10:30:42;94493.94;;;19.42;nan
10946;BME280;5525;42.648;23.368;2022-11-04T10:33:18;94483.03;;;19.56;nan
10946;BME280;5525;42.648;23.368;2022-11-04T10:35:49;94482.41;;;19.90;nan
10946;BME280;5525;42.648;23.368;2022-11-04T10:38:34;94472.94;;;19.77;nan
10946;BME280;5525;42.648;23.368;2022-11-04T10:41:11;94467.38;;;19.56;nan
10946;BME280;5525;42.648;23.368;2022-11-04T10:43:43;94458.03;;;19.64;nan
10946;BME280;5525;42.648;23.368;2022-11-04T10:46:23;94432.47;;;19.36;nan
10946;BME280;5525;42.648;23.368;2022-11-04T10:48:58;94439.66;;;19.65;nan
10946;BME280;5525;42.648;23.368;2022-11-04T10:51:27;94446.44;;;20.09;nan
10946;BME280;5525;42.648;23.368;2022-11-04T10:53:56;94442.19;;;20.54;nan
10946;BME280;5525;42.648;23.368;2022-11-04T10:56:30;94436.22;;;21.40;nan
10946;BME280;5525;42.648;23.368;2022-11-04T10:59:12;94418.50;;;22.27;nan
10946;BME280;5525;42.648;23.368;2022-11-04T11:01:48;94419.53;;;24.56;nan
10946;BME280;5525;42.648;23.368;2022-11-04T11:04:25;94367.56;;;24.28;nan
10946;BME280;5525;42.648;23.368;2022-11-04T11:06:53;94387.06;;;25.33;nan
10946;BME280;5525;42.648;23.368;2022-11-04T11:09:23;94413.97;;;25.71;nan
10946;BME280;5525;42.648;23.368;2022-11-04T11:11:55;94411.06;;;26.33;nan
10946;BME280;5525;42.648;23.368;2022-11-04T11:14:33;94405.38;;;27.65;nan
10946;BME280;5525;42.648;23.368;2022-11-04T11:17:21;94403.53;;;29.85;nan
10946;BME280;5525;42.648;23.368;2022-11-04T11:19:53;94418.56;;;32.12;nan
10946;BME280;5525;42.648;23.368;2022-11-04T11:22:35;94417.03;;;32.11;nan
10946;BME280;5525;42.648;23.368;2022-11-04T11:25:18;94370.91;;;32.16;nan
10946;BME280;5525;42.648;23.368;2022-11-04T11:27:48;94408.81;;;32.77;nan
10946;BME280;5525;42.648;23.368;2022-11-04T11:30:23;94394.06;;;33.09;nan
10946;BME280;5525;42.648;23.368;2022-11-04T11:32:52;94355.69;;;32.26;nan
10946;BME280;5525;42.648;23.368;2022-11-04T11:35:24;94374.78;;;29.10;nan
10946;BME280;5525;42.648;23.368;2022-11-04T11:37:53;94360.50;;;29.21;nan
10946;BME280;5525;42.648;23.368;2022-11-04T11:40:28;94344.47;;;28.78;nan
10946;BME280;5525;42.648;23.368;2022-11-04T11:42:57;94356.34;;;28.16;nan
10946;BME280;5525;42.648;23.368;2022-11-04T11:45:27;94357.69;;;28.37;nan
10946;BME280;5525;42.648;23.368;2022-11-04T11:47:55;94317.00;;;28.68;nan
10946;BME280;5525;42.648;23.368;2022-11-04T11:50:24;94339.19;;;30.35;nan
10946;BME280;5525;42.648;23.368;2022-11-04T11:53:12;94291.09;;;29.82;nan
10946;BME280;5525;42.648;23.368;2022-11-04T11:55:44;94317.03;;;28.55;nan
10946;BME280;5525;42.648;23.368;2022-11-04T11:58:21;94320.72;;;27.61;nan
10946;BME280;5525;42.648;23.368;2022-11-04T12:00:58;94322.13;;;25.80;nan
10946;BME280;5525;42.648;23.368;2022-11-04T12:03:30;94316.72;;;24.75;nan
10946;BME280;5525;42.648;23.368;2022-11-04T12:06:19;94264.97;;;22.93;nan
10946;BME280;5525;42.648;23.368;2022-11-04T12:09:01;94306.75;;;22.88;nan
10946;BME280;5525;42.648;23.368;2022-11-04T12:11:37;94314.78;;;22.72;nan
10946;BME280;5525;42.648;23.368;2022-11-04T12:14:12;94304.34;;;22.53;nan
10946;BME280;5525;42.648;23.368;2022-11-04T12:16:50;94305.50;;;22.08;nan
10946;BME280;5525;42.648;23.368;2022-11-04T12:19:34;94288.47;;;21.68;nan
10946;BME280;5525;42.648;23.368;2022-11-04T12:22:13;94298.88;;;21.40;nan
10946;BME280;5525;42.648;23.368;2022-11-04T12:24:47;94290.72;;;21.19;nan
10946;BME280;5525;42.648;23.368;2022-11-04T12:27:25;94307.28;;;21.01;nan
10946;BME280;5525;42.648;23.368;2022-11-04T12:30:05;94304.63;;;21.63;nan
10946;BME280;5525;42.648;23.368;2022-11-04T12:32:56;94246.13;;;20.90;nan
10946;BME280;5525;42.648;23.368;2022-11-04T12:35:43;94301.22;;;21.41;nan
10946;BME280;5525;42.648;23.368;2022-11-04T12:38:27;94301.75;;;21.12;nan
10946;BME280;5525;42.648;23.368;2022-11-04T12:41:05;94305.28;;;21.12;nan
10946;BME280;5525;42.648;23.368;2022-11-04T12:43:40;94289.63;;;21.06;nan
10946;BME280;5525;42.648;23.368;2022-11-04T12:46:16;94283.16;;;21.40;nan
10946;BME280;5525;42.648;23.368;2022-11-04T12:49:05;94268.41;;;21.10;nan
10946;BME280;5525;42.648;23.368;2022-11-04T12:51:41;94265.72;;;20.92;nan
10946;BME280;5525;42.648;23.368;2022-11-04T12:54:30;94271.19;;;20.99;nan
10946;BME280;5525;42.648;23.368;2022-11-04T12:57:12;94232.50;;;20.66;nan
10946;BME280;5525;42.648;23.368;2022-11-04T13:00:02;94277.91;;;20.81;nan
10946;BME280;5525;42.648;23.368;2022-11-04T13:02:34;94266.53;;;20.82;nan
10946;BME280;5525;42.648;23.368;2022-11-04T13:05:20;94273.69;;;20.52;nan
10946;BME280;5525;42.648;23.368;2022-11-04T13:07:52;94278.03;;;20.28;nan
10946;BME280;5525;42.648;23.368;2022-11-04T13:10:25;94269.41;;;20.08;nan
10946;BME280;5525;42.648;23.368;2022-11-04T13:12:54;94264.34;;;19.96;nan
10946;BME280;5525;42.648;23.368;2022-11-04T13:15:26;94238.09;;;19.74;nan
10946;BME280;5525;42.648;23.368;2022-11-04T13:17:59;94255.34;;;19.85;nan
10946;BME280;5525;42.648;23.368;2022-11-04T13:20:40;94235.38;;;19.64;nan
10946;BME280;5525;42.648;23.368;2022-11-04T13:23:16;94274.09;;;19.59;nan
10946;BME280;5525;42.648;23.368;2022-11-04T13:25:46;94245.53;;;19.39;nan
10946;BME280;5525;42.648;23.368;2022-11-04T13:28:15;94275.63;;;19.32;nan
10946;BME280;5525;42.648;23.368;2022-11-04T13:30:51;94270.91;;;19.22;nan
10946;BME280;5525;42.648;23.368;2022-11-04T13:33:26;94226.66;;;19.02;nan
10946;BME280;5525;42.648;23.368;2022-11-04T13:36:01;94266.25;;;19.47;nan
10946;BME280;5525;42.648;23.368;2022-11-04T13:38:34;94227.53;;;19.27;nan
10946;BME280;5525;42.648;23.368;2022-11-04T13:41:19;94222.03;;;19.34;nan
10946;BME280;5525;42.648;23.368;2022-11-04T13:43:52;94229.50;;;19.55;nan
10946;BME280;5525;42.648;23.368;2022-11-04T13:46:24;94271.41;;;19.94;nan
10946;BME280;5525;42.648;23.368;2022-11-04T13:49:03;94272.53;;;20.03;nan
10946;BME280;5525;42.648;23.368;2022-11-04T13:51:41;94260.81;;;20.03;nan
10946;BME280;5525;42.648;23.368;2022-11-04T13:54:26;94249.44;;;19.83;nan